createdAt,value
2023-07-26T00:00:08.375Z,3.75
2023-07-26T00:00:47.228Z,4.40
2023-07-26T00:01:19.098Z,5.90
2023-07-26T00:01:50.942Z,4.32
2023-07-26T00:02:22.910Z,5.38
2023-07-26T00:02:55.132Z,4.15
2023-07-26T00:03:27.101Z,4.68
2023-07-26T00:04:00.072Z,4.50
2023-07-26T00:04:32.022Z,5.35
2023-07-26T00:05:06.398Z,4.90
2023-07-26T00:05:39.073Z,4.53
2023-07-26T00:06:11.046Z,4.55
2023-07-26T00:06:43.058Z,6.15
2023-07-26T00:07:15.017Z,5.45
2023-07-26T00:07:49.521Z,6.05
2023-07-26T00:08:22.098Z,5.35
2023-07-26T00:08:54.283Z,7.70
2023-07-26T00:09:27.220Z,5.15
2023-07-26T00:09:59.075Z,5.00
2023-07-26T00:10:30.917Z,6.97
2023-07-26T00:11:04.261Z,6.25
2023-07-26T00:11:37.202Z,6.05
2023-07-26T00:12:09.140Z,7.07
2023-07-26T00:12:40.969Z,5.28
2023-07-26T00:13:16.780Z,5.30
2023-07-26T00:13:49.198Z,7.38
2023-07-26T00:14:20.911Z,5.22
2023-07-26T00:14:52.825Z,8.32
2023-07-26T00:15:24.698Z,9.75
2023-07-26T00:15:56.633Z,5.40
2023-07-26T00:16:28.457Z,6.28
2023-07-26T00:17:01.044Z,5.22
2023-07-26T00:17:32.843Z,5.55
2023-07-26T00:18:05.456Z,5.72
2023-07-26T00:18:40.368Z,6.85
2023-07-26T00:19:13.514Z,8.40
2023-07-26T00:19:45.363Z,5.50
2023-07-26T00:20:17.386Z,6.85
2023-07-26T00:20:50.084Z,6.50
2023-07-26T00:21:22.820Z,5.75
2023-07-26T00:21:54.605Z,7.40
2023-07-26T00:22:26.417Z,6.05
2023-07-26T00:22:58.211Z,6.38
2023-07-26T00:23:29.961Z,5.57
2023-07-26T00:24:02.330Z,5.50
2023-07-26T00:24:34.175Z,8.73
2023-07-26T00:25:06.615Z,7.00
2023-07-26T00:25:38.527Z,7.05
2023-07-26T00:26:10.314Z,6.95
2023-07-26T00:26:42.275Z,7.78
2023-07-26T00:27:17.881Z,5.57
2023-07-26T00:27:49.878Z,6.07
2023-07-26T00:28:21.700Z,7.18
2023-07-26T00:28:53.518Z,5.72
2023-07-26T00:29:25.340Z,4.82
2023-07-26T00:29:58.671Z,7.50
2023-07-26T00:30:30.580Z,5.57
2023-07-26T00:31:03.131Z,6.10
2023-07-26T00:31:35.160Z,5.93
2023-07-26T00:32:07.775Z,6.15
2023-07-26T00:32:39.665Z,5.68
2023-07-26T00:33:12.551Z,6.97
2023-07-26T00:33:45.606Z,5.38
2023-07-26T00:34:17.561Z,6.05
2023-07-26T00:34:49.373Z,7.47
2023-07-26T00:35:25.280Z,7.03
2023-07-26T00:35:58.018Z,6.38
2023-07-26T00:36:29.971Z,5.88
2023-07-26T00:37:05.089Z,5.45
2023-07-26T00:37:36.964Z,6.88
2023-07-26T00:38:09.158Z,5.25
2023-07-26T00:38:41.039Z,5.88
2023-07-26T00:39:12.920Z,5.20
2023-07-26T00:39:44.978Z,5.60
2023-07-26T00:40:17.056Z,5.63
2023-07-26T00:40:49.124Z,5.25
2023-07-26T00:41:20.874Z,7.57
2023-07-26T00:41:52.665Z,4.70
2023-07-26T00:42:24.593Z,6.00
2023-07-26T00:42:57.189Z,7.47
2023-07-26T00:43:29.061Z,6.53
2023-07-26T00:44:02.855Z,5.00
2023-07-26T00:44:35.011Z,4.88
2023-07-26T00:45:10.041Z,6.90
2023-07-26T00:45:43.638Z,6.45
2023-07-26T00:46:17.553Z,5.30
2023-07-26T00:46:50.110Z,6.05
2023-07-26T00:47:22.168Z,6.63
2023-07-26T00:47:55.673Z,6.47
2023-07-26T00:48:28.221Z,7.18
2023-07-26T00:49:01.594Z,8.05
2023-07-26T00:49:33.560Z,6.72
2023-07-26T00:50:06.368Z,5.95
2023-07-26T00:50:40.812Z,6.30
2023-07-26T00:51:14.029Z,6.68
2023-07-26T00:51:46.013Z,6.18
2023-07-26T00:52:18.271Z,6.05
2023-07-26T00:52:53.101Z,5.95
2023-07-26T00:53:25.239Z,5.78
2023-07-26T00:53:58.002Z,7.57
2023-07-26T00:54:30.062Z,6.38
2023-07-26T00:55:04.928Z,6.70
2023-07-26T00:55:37.247Z,5.53
2023-07-26T00:56:10.700Z,5.18
2023-07-26T00:56:42.541Z,5.75
2023-07-26T00:57:15.337Z,5.57
2023-07-26T00:57:48.009Z,6.82
2023-07-26T00:58:20.648Z,7.40
2023-07-26T00:58:52.561Z,7.38
2023-07-26T00:59:25.026Z,8.00
2023-07-26T00:59:57.919Z,6.20
2023-07-26T01:00:30.248Z,5.43
2023-07-26T01:01:02.074Z,6.18
2023-07-26T01:01:34.936Z,6.03
2023-07-26T01:02:07.033Z,5.35
2023-07-26T01:02:39.053Z,6.80
2023-07-26T01:03:11.115Z,4.95
2023-07-26T01:03:43.079Z,5.47
2023-07-26T01:04:14.875Z,6.50
2023-07-26T01:04:46.700Z,5.57
2023-07-26T01:05:20.480Z,7.82
2023-07-26T01:06:22.938Z,4.60
2023-07-26T01:07:08.427Z,7.40
2023-07-26T01:08:07.528Z,6.97
2023-07-26T01:09:11.606Z,6.43
2023-07-26T01:09:48.328Z,4.85
2023-07-26T01:10:25.487Z,5.20
2023-07-26T01:11:06.491Z,6.50
2023-07-26T01:11:59.567Z,6.07
2023-07-26T01:12:40.201Z,5.70
2023-07-26T01:13:36.655Z,7.45
2023-07-26T01:14:21.407Z,4.93
2023-07-26T01:14:58.237Z,5.38
2023-07-26T01:15:38.330Z,6.93
2023-07-26T01:16:10.949Z,7.13
2023-07-26T01:16:43.345Z,5.80
2023-07-26T01:17:15.187Z,6.82
2023-07-26T01:17:48.119Z,4.70
2023-07-26T01:18:20.120Z,5.78
2023-07-26T01:18:52.033Z,5.57
2023-07-26T01:19:24.001Z,7.50
2023-07-26T01:19:57.299Z,6.35
2023-07-26T01:20:30.496Z,5.60
2023-07-26T01:21:02.756Z,4.95
2023-07-26T01:21:35.282Z,6.45
2023-07-26T01:22:07.131Z,6.55
2023-07-26T01:22:39.051Z,7.15
2023-07-26T01:23:11.677Z,5.57
2023-07-26T01:23:43.941Z,5.13
2023-07-26T01:24:16.183Z,4.95
2023-07-26T01:24:49.109Z,6.75
2023-07-26T01:25:21.029Z,5.80
2023-07-26T01:25:53.190Z,4.80
2023-07-26T01:26:25.176Z,6.63
2023-07-26T01:26:59.907Z,4.88
2023-07-26T01:27:32.740Z,5.78
2023-07-26T01:28:04.918Z,4.50
2023-07-26T01:28:36.719Z,4.72
2023-07-26T01:29:08.545Z,5.28
2023-07-26T01:29:40.458Z,5.75
2023-07-26T01:30:12.971Z,6.13
2023-07-26T01:30:46.371Z,6.45
2023-07-26T01:31:21.644Z,4.53
2023-07-26T01:31:53.576Z,4.85
2023-07-26T01:32:28.725Z,4.40
2023-07-26T01:33:08.644Z,3.80
2023-07-26T01:33:42.440Z,3.67
2023-07-26T01:34:14.638Z,5.15
2023-07-26T01:34:46.653Z,6.22
2023-07-26T01:35:22.182Z,5.65
2023-07-26T01:35:57.121Z,6.38
2023-07-26T01:36:31.316Z,6.75
2023-07-26T01:37:03.959Z,4.40
2023-07-26T01:37:38.178Z,5.82
2023-07-26T01:38:12.959Z,5.20
2023-07-26T01:38:46.251Z,6.53
2023-07-26T01:39:19.238Z,3.70
2023-07-26T01:39:52.841Z,6.28
2023-07-26T01:40:25.376Z,3.35
2023-07-26T01:41:00.333Z,4.95
2023-07-26T01:41:33.743Z,3.50
2023-07-26T01:42:06.190Z,4.10
2023-07-26T01:42:38.135Z,6.28
2023-07-26T01:43:12.095Z,4.15
2023-07-26T01:43:44.834Z,4.35
2023-07-26T01:44:16.686Z,3.90
2023-07-26T01:44:49.597Z,4.07
2023-07-26T01:45:22.661Z,4.65
2023-07-26T01:45:55.038Z,4.10
2023-07-26T01:46:26.989Z,5.05
2023-07-26T01:46:58.883Z,4.28
2023-07-26T01:47:31.270Z,5.05
2023-07-26T01:48:03.259Z,3.47
2023-07-26T01:48:35.916Z,3.75
2023-07-26T01:49:07.695Z,4.53
2023-07-26T01:49:39.907Z,6.53
2023-07-26T01:50:11.908Z,3.80
2023-07-26T01:50:43.840Z,4.85
2023-07-26T01:51:15.717Z,3.92
2023-07-26T01:51:47.555Z,5.05
2023-07-26T01:52:19.992Z,5.63
2023-07-26T01:52:51.798Z,4.00
2023-07-26T01:53:23.655Z,3.30
2023-07-26T01:53:55.579Z,3.75
2023-07-26T01:54:27.337Z,5.60
2023-07-26T01:55:00.791Z,4.03
2023-07-26T01:55:32.645Z,4.63
2023-07-26T01:56:04.777Z,4.40
2023-07-26T01:56:37.238Z,6.32
2023-07-26T01:57:09.071Z,3.80
2023-07-26T01:57:41.017Z,4.22
2023-07-26T01:58:13.082Z,4.68
2023-07-26T01:58:45.018Z,4.28
2023-07-26T01:59:16.790Z,4.00
2023-07-26T01:59:49.357Z,5.70
2023-07-26T02:00:21.856Z,3.58
2023-07-26T02:00:56.350Z,4.93
2023-07-26T02:01:28.982Z,4.47
2023-07-26T02:02:01.025Z,4.55
2023-07-26T02:02:33.007Z,5.63
2023-07-26T02:03:04.842Z,5.93
2023-07-26T02:03:36.851Z,4.90
2023-07-26T02:04:08.756Z,4.57
2023-07-26T02:04:40.920Z,5.18
2023-07-26T02:05:13.072Z,5.35
2023-07-26T02:05:47.763Z,5.93
2023-07-26T02:06:19.602Z,4.47
2023-07-26T02:06:52.351Z,5.45
2023-07-26T02:07:24.180Z,7.88
2023-07-26T02:07:55.911Z,5.93
2023-07-26T02:08:29.618Z,6.95
2023-07-26T02:09:01.690Z,5.65
2023-07-26T02:09:33.482Z,5.30
2023-07-26T02:10:05.750Z,4.50
2023-07-26T02:10:38.005Z,5.20
2023-07-26T02:11:09.742Z,6.95
2023-07-26T02:11:41.539Z,4.93
2023-07-26T02:12:13.568Z,5.15
2023-07-26T02:12:45.348Z,6.18
2023-07-26T02:13:17.184Z,4.95
2023-07-26T02:13:49.766Z,6.90
2023-07-26T02:14:22.749Z,6.50
2023-07-26T02:14:54.594Z,7.15
2023-07-26T02:15:27.371Z,6.32
2023-07-26T02:16:00.073Z,5.50
2023-07-26T02:16:31.862Z,6.40
2023-07-26T02:17:03.748Z,8.73
2023-07-26T02:17:35.812Z,6.15
2023-07-26T02:18:08.170Z,6.43
2023-07-26T02:18:40.307Z,7.93
2023-07-26T02:19:12.211Z,8.52
2023-07-26T02:19:44.032Z,6.82
2023-07-26T02:20:15.935Z,6.72
2023-07-26T02:20:47.810Z,8.50
2023-07-26T02:21:20.701Z,6.68
2023-07-26T02:21:53.269Z,7.13
2023-07-26T02:22:25.414Z,9.70
2023-07-26T02:23:00.156Z,9.75
2023-07-26T02:23:32.050Z,6.85
2023-07-26T02:24:04.992Z,8.18
2023-07-26T02:24:37.282Z,8.43
2023-07-26T02:25:10.127Z,7.03
2023-07-26T02:25:45.045Z,8.45
2023-07-26T02:26:17.568Z,8.30
2023-07-26T02:26:50.489Z,11.68
2023-07-26T02:27:22.968Z,9.77
2023-07-26T02:27:55.235Z,9.63
2023-07-26T02:28:27.050Z,8.82
2023-07-26T02:28:59.274Z,9.43
2023-07-26T02:29:31.324Z,11.25
2023-07-26T02:30:03.541Z,8.50
2023-07-26T02:30:36.687Z,8.98
2023-07-26T02:31:08.788Z,9.07
2023-07-26T02:31:41.065Z,10.10
2023-07-26T02:32:12.933Z,11.77
2023-07-26T02:32:44.978Z,10.45
2023-07-26T02:33:17.212Z,10.10
2023-07-26T02:33:49.010Z,10.50
2023-07-26T02:34:21.506Z,8.52
2023-07-26T02:34:53.375Z,10.68
2023-07-26T02:35:25.265Z,10.80
2023-07-26T02:36:00.445Z,12.75
2023-07-26T02:36:33.854Z,10.95
2023-07-26T02:37:05.786Z,10.88
2023-07-26T02:37:37.664Z,9.45
2023-07-26T02:38:10.573Z,9.80
2023-07-26T02:38:43.520Z,11.13
2023-07-26T02:39:15.718Z,9.10
2023-07-26T02:39:50.113Z,11.13
2023-07-26T02:40:22.544Z,11.10
2023-07-26T02:40:54.417Z,9.93
2023-07-26T02:41:26.695Z,12.10
2023-07-26T02:41:58.452Z,10.93
2023-07-26T02:42:30.261Z,9.63
2023-07-26T02:43:02.542Z,10.32
2023-07-26T02:43:40.460Z,10.77
2023-07-26T02:44:15.042Z,12.50
2023-07-26T02:44:50.498Z,10.73
2023-07-26T02:45:22.399Z,9.70
2023-07-26T02:45:54.687Z,9.77
2023-07-26T02:46:26.556Z,9.90
2023-07-26T02:46:59.890Z,10.73
2023-07-26T02:47:34.384Z,9.40
2023-07-26T02:48:06.687Z,12.40
2023-07-26T02:48:39.506Z,11.55
2023-07-26T02:49:13.598Z,11.55
2023-07-26T02:49:45.900Z,11.95
2023-07-26T02:50:18.169Z,9.93
2023-07-26T02:50:49.919Z,10.30
2023-07-26T02:51:23.065Z,11.07
2023-07-26T02:51:54.889Z,10.15
2023-07-26T02:52:28.554Z,10.80
2023-07-26T02:53:01.359Z,10.90
2023-07-26T02:53:33.638Z,9.70
2023-07-26T02:54:05.740Z,13.02
2023-07-26T02:54:37.707Z,10.40
2023-07-26T02:55:09.729Z,11.90
2023-07-26T02:55:43.248Z,10.18
2023-07-26T02:56:16.909Z,10.65
2023-07-26T02:56:49.965Z,12.07
2023-07-26T02:57:22.345Z,10.20
2023-07-26T02:57:54.271Z,12.13
2023-07-26T02:58:26.111Z,11.15
2023-07-26T02:58:58.572Z,13.27
2023-07-26T02:59:31.707Z,11.15
2023-07-26T03:00:04.051Z,12.75
2023-07-26T03:00:37.009Z,13.15
2023-07-26T03:01:08.888Z,15.70
2023-07-26T03:01:40.771Z,12.32
2023-07-26T03:02:12.684Z,13.60
2023-07-26T03:02:44.701Z,11.57
2023-07-26T03:03:16.864Z,11.77
2023-07-26T03:03:48.738Z,11.30
2023-07-26T03:04:21.493Z,13.13
2023-07-26T03:04:53.366Z,12.43
2023-07-26T03:05:27.794Z,13.35
2023-07-26T03:06:00.084Z,11.15
2023-07-26T03:06:31.977Z,14.15
2023-07-26T03:07:03.926Z,13.77
2023-07-26T03:07:36.575Z,12.88
2023-07-26T03:08:08.425Z,12.50
2023-07-26T03:08:43.214Z,14.02
2023-07-26T03:09:15.927Z,13.25
2023-07-26T03:09:49.233Z,13.95
2023-07-26T03:10:21.879Z,12.55
2023-07-26T03:10:54.738Z,14.77
2023-07-26T03:11:26.595Z,16.10
2023-07-26T03:12:00.591Z,14.43
2023-07-26T03:12:32.492Z,15.13
2023-07-26T03:13:05.272Z,16.92
2023-07-26T03:13:37.058Z,13.13
2023-07-26T03:14:08.818Z,13.40
2023-07-26T03:14:41.952Z,12.65
2023-07-26T03:15:14.174Z,13.80
2023-07-26T03:15:46.462Z,15.15
2023-07-26T03:16:18.725Z,13.30
2023-07-26T03:16:50.684Z,12.82
2023-07-26T03:17:23.810Z,17.33
2023-07-26T03:17:55.875Z,20.63
2023-07-26T03:18:28.483Z,13.77
2023-07-26T03:19:00.482Z,14.77
2023-07-26T03:19:32.243Z,17.30
2023-07-26T03:20:04.460Z,16.58
2023-07-26T03:20:37.420Z,13.57
2023-07-26T03:21:09.411Z,17.50
2023-07-26T03:21:41.348Z,15.40
2023-07-26T03:22:13.155Z,14.73
2023-07-26T03:22:44.977Z,17.35
2023-07-26T03:23:16.881Z,14.27
2023-07-26T03:23:48.576Z,13.88
2023-07-26T03:24:20.407Z,13.10
2023-07-26T03:24:52.246Z,16.20
2023-07-26T03:25:24.031Z,16.33
2023-07-26T03:25:56.214Z,16.13
2023-07-26T03:26:28.046Z,13.63
2023-07-26T03:27:00.094Z,17.60
2023-07-26T03:27:32.042Z,16.17
2023-07-26T03:28:04.975Z,17.50
2023-07-26T03:28:36.781Z,19.45
2023-07-26T03:29:08.558Z,17.75
2023-07-26T03:29:40.387Z,15.57
2023-07-26T03:30:12.632Z,14.93
2023-07-26T03:30:44.420Z,16.50
2023-07-26T03:31:16.220Z,16.17
2023-07-26T03:31:48.092Z,16.52
2023-07-26T03:32:19.893Z,15.45
2023-07-26T03:32:55.007Z,16.83
2023-07-26T03:33:27.125Z,14.80
2023-07-26T03:33:59.014Z,14.57
2023-07-26T03:34:30.922Z,15.18
2023-07-26T03:35:02.903Z,14.52
2023-07-26T03:35:34.744Z,14.68
2023-07-26T03:36:06.495Z,16.13
2023-07-26T03:36:38.283Z,19.05
2023-07-26T03:37:11.366Z,17.45
2023-07-26T03:37:43.183Z,15.30
2023-07-26T03:38:14.959Z,15.63
2023-07-26T03:38:46.683Z,17.17
2023-07-26T03:39:19.292Z,14.57
2023-07-26T03:39:51.439Z,14.88
2023-07-26T03:40:23.290Z,16.35
2023-07-26T03:40:55.019Z,18.25
2023-07-26T03:41:26.919Z,15.50
2023-07-26T03:41:58.904Z,16.85
2023-07-26T03:42:31.449Z,16.60
2023-07-26T03:43:03.227Z,15.27
2023-07-26T03:43:35.014Z,14.18
2023-07-26T03:44:07.533Z,17.83
2023-07-26T03:44:41.743Z,15.57
2023-07-26T03:45:14.703Z,15.02
2023-07-26T03:45:46.619Z,15.68
2023-07-26T03:46:18.573Z,17.63
2023-07-26T03:46:50.316Z,14.80
2023-07-26T03:47:22.676Z,15.05
2023-07-26T03:47:55.164Z,14.63
2023-07-26T03:48:27.042Z,15.32
2023-07-26T03:48:58.857Z,16.55
2023-07-26T03:49:30.809Z,14.27
2023-07-26T03:50:03.335Z,15.50
2023-07-26T03:50:35.812Z,16.13
2023-07-26T03:51:07.654Z,15.02
2023-07-26T03:51:39.445Z,19.08
2023-07-26T03:52:12.116Z,16.45
2023-07-26T03:52:44.747Z,15.07
2023-07-26T03:53:16.676Z,18.00
2023-07-26T03:53:48.656Z,18.67
2023-07-26T03:54:20.478Z,17.45
2023-07-26T03:54:52.435Z,16.15
2023-07-26T03:55:24.254Z,16.80
2023-07-26T03:55:56.032Z,16.25
2023-07-26T03:56:27.863Z,15.38
2023-07-26T03:56:59.731Z,16.92
2023-07-26T03:57:32.356Z,17.75
2023-07-26T03:58:04.157Z,15.85
2023-07-26T03:58:37.660Z,16.55
2023-07-26T03:59:11.024Z,15.80
2023-07-26T03:59:45.953Z,16.27
2023-07-26T04:00:17.766Z,14.18
2023-07-26T04:00:49.634Z,16.17
2023-07-26T04:01:21.883Z,17.77
2023-07-26T04:01:54.254Z,17.80
2023-07-26T04:02:26.351Z,18.85
2023-07-26T04:02:58.886Z,18.30
2023-07-26T04:03:31.852Z,16.73
2023-07-26T04:04:03.977Z,16.23
2023-07-26T04:04:36.731Z,18.08
2023-07-26T04:05:08.971Z,19.05
2023-07-26T04:05:42.556Z,14.85
2023-07-26T04:06:15.099Z,20.15
2023-07-26T04:06:48.680Z,14.85
2023-07-26T04:07:20.462Z,16.13
2023-07-26T04:07:52.340Z,14.88
2023-07-26T04:08:24.140Z,17.17
2023-07-26T04:08:56.840Z,17.13
2023-07-26T04:09:29.761Z,15.55
2023-07-26T04:10:01.755Z,16.77
2023-07-26T04:10:33.844Z,15.90
2023-07-26T04:11:05.751Z,16.65
2023-07-26T04:11:37.632Z,15.02
2023-07-26T04:12:09.780Z,16.52
2023-07-26T04:12:41.572Z,15.15
2023-07-26T04:13:13.550Z,19.33
2023-07-26T04:13:45.357Z,15.52
2023-07-26T04:14:18.640Z,14.40
2023-07-26T04:14:50.543Z,16.13
2023-07-26T04:15:22.414Z,21.13
2023-07-26T04:15:55.066Z,17.40
2023-07-26T04:16:26.961Z,17.70
2023-07-26T04:16:59.714Z,15.00
2023-07-26T04:17:31.636Z,17.13
2023-07-26T04:18:03.620Z,16.23
2023-07-26T04:18:36.547Z,15.95
2023-07-26T04:19:08.837Z,16.80
2023-07-26T04:19:41.857Z,17.35
2023-07-26T04:20:14.743Z,17.38
2023-07-26T04:20:46.587Z,16.90
2023-07-26T04:21:19.625Z,17.00
2023-07-26T04:21:51.719Z,18.52
2023-07-26T04:22:23.722Z,16.10
2023-07-26T04:22:55.764Z,19.02
2023-07-26T04:23:27.754Z,15.50
2023-07-26T04:23:59.585Z,19.60
2023-07-26T04:24:31.787Z,20.08
2023-07-26T04:25:05.010Z,16.48
2023-07-26T04:25:36.875Z,16.55
2023-07-26T04:26:10.610Z,19.13
2023-07-26T04:26:42.435Z,16.73
2023-07-26T04:27:15.151Z,18.50
2023-07-26T04:27:46.934Z,15.25
2023-07-26T04:28:18.748Z,15.98
2023-07-26T04:28:50.509Z,16.65
2023-07-26T04:29:23.212Z,16.58
2023-07-26T04:29:55.020Z,16.85
2023-07-26T04:30:27.268Z,16.58
2023-07-26T04:30:59.018Z,17.20
2023-07-26T04:31:30.850Z,18.77
2023-07-26T04:32:02.846Z,17.10
2023-07-26T04:32:34.643Z,16.00
2023-07-26T04:33:06.512Z,21.92
2023-07-26T04:33:40.134Z,18.13
2023-07-26T04:34:13.651Z,17.73
2023-07-26T04:34:45.470Z,16.38
2023-07-26T04:35:17.220Z,21.52
2023-07-26T04:35:49.052Z,19.25
2023-07-26T04:36:22.321Z,18.10
2023-07-26T04:36:54.126Z,17.65
2023-07-26T04:37:25.851Z,18.80
2023-07-26T04:37:57.608Z,19.35
2023-07-26T04:38:29.358Z,17.30
2023-07-26T04:39:01.213Z,20.20
2023-07-26T04:39:32.988Z,18.42
2023-07-26T04:40:05.178Z,18.95
2023-07-26T04:40:38.329Z,16.95
2023-07-26T04:41:10.201Z,18.90
2023-07-26T04:41:42.017Z,15.65
2023-07-26T04:42:14.128Z,19.45
2023-07-26T04:42:46.417Z,17.90
2023-07-26T04:43:21.027Z,20.05
2023-07-26T04:43:52.790Z,19.27
2023-07-26T04:44:24.586Z,17.45
2023-07-26T04:44:56.690Z,21.88
2023-07-26T04:45:28.731Z,16.70
2023-07-26T04:46:00.545Z,19.77
2023-07-26T04:46:32.536Z,16.90
2023-07-26T04:47:05.029Z,20.77
2023-07-26T04:47:37.009Z,20.48
2023-07-26T04:48:09.781Z,22.38
2023-07-26T04:48:41.646Z,17.77
2023-07-26T04:49:13.734Z,17.98
2023-07-26T04:49:45.733Z,20.02
2023-07-26T04:50:17.718Z,19.15
2023-07-26T04:50:50.326Z,17.75
2023-07-26T04:51:24.539Z,20.38
2023-07-26T04:51:56.417Z,21.45
2023-07-26T04:52:28.271Z,17.30
2023-07-26T04:53:00.855Z,20.08
2023-07-26T04:53:32.874Z,22.25
2023-07-26T04:54:06.672Z,19.75
2023-07-26T04:54:39.401Z,21.38
2023-07-26T04:55:11.308Z,17.65
2023-07-26T04:55:52.772Z,21.45
2023-07-26T04:56:26.862Z,16.98
2023-07-26T04:56:58.654Z,18.75
2023-07-26T04:57:30.466Z,19.58
2023-07-26T04:58:02.244Z,17.88
2023-07-26T04:58:34.698Z,18.02
2023-07-26T04:59:06.536Z,17.40
2023-07-26T04:59:39.495Z,20.25
2023-07-26T05:00:13.356Z,21.60
2023-07-26T05:00:46.891Z,20.20
2023-07-26T05:01:18.814Z,17.58
2023-07-26T05:01:50.694Z,20.58
2023-07-26T05:02:22.594Z,19.40
2023-07-26T05:02:54.778Z,19.63
2023-07-26T05:03:27.469Z,16.95
2023-07-26T05:03:59.270Z,17.17
2023-07-26T05:04:31.789Z,19.50
2023-07-26T05:05:03.895Z,24.40
2023-07-26T05:05:36.226Z,18.02
2023-07-26T05:06:08.794Z,17.73
2023-07-26T05:06:40.621Z,16.63
2023-07-26T05:07:12.452Z,22.05
2023-07-26T05:07:46.627Z,18.63
2023-07-26T05:08:22.954Z,17.63
2023-07-26T05:08:55.457Z,19.60
2023-07-26T05:09:27.731Z,19.60
2023-07-26T05:09:59.894Z,19.27
2023-07-26T05:10:31.836Z,20.10
2023-07-26T05:11:03.799Z,17.58
2023-07-26T05:11:35.775Z,19.33
2023-07-26T05:12:08.739Z,28.88
2023-07-26T05:12:40.711Z,21.38
2023-07-26T05:13:12.535Z,16.35
2023-07-26T05:13:45.047Z,17.38
2023-07-26T05:14:18.391Z,17.45
2023-07-26T05:14:50.163Z,16.95
2023-07-26T05:15:21.952Z,18.48
2023-07-26T05:15:53.807Z,18.98
2023-07-26T05:16:25.717Z,19.13
2023-07-26T05:16:57.560Z,16.80
2023-07-26T05:17:29.585Z,19.27
2023-07-26T05:18:01.447Z,18.35
2023-07-26T05:18:33.339Z,16.90
2023-07-26T05:19:05.706Z,23.10
2023-07-26T05:19:37.484Z,20.38
2023-07-26T05:20:09.675Z,20.38
2023-07-26T05:20:42.936Z,16.70
2023-07-26T05:21:15.662Z,23.38
2023-07-26T05:21:47.522Z,20.15
2023-07-26T05:22:19.619Z,17.23
2023-07-26T05:22:52.005Z,19.70
2023-07-26T05:23:23.828Z,20.50
2023-07-26T05:23:55.605Z,18.30
2023-07-26T05:24:27.472Z,20.73
2023-07-26T05:24:59.735Z,22.33
2023-07-26T05:25:31.528Z,17.50
2023-07-26T05:26:03.904Z,20.90
2023-07-26T05:26:36.703Z,21.38
2023-07-26T05:27:08.847Z,20.13
2023-07-26T05:27:41.639Z,18.63
2023-07-26T05:28:13.549Z,17.35
2023-07-26T05:28:45.765Z,18.38
2023-07-26T05:29:17.833Z,16.40
2023-07-26T05:29:49.827Z,18.00
2023-07-26T05:30:21.797Z,20.23
2023-07-26T05:30:57.363Z,18.30
2023-07-26T05:31:29.286Z,19.65
2023-07-26T05:32:01.141Z,15.45
2023-07-26T05:32:33.200Z,22.13
2023-07-26T05:33:06.726Z,17.40
2023-07-26T05:33:38.600Z,18.50
2023-07-26T05:34:10.707Z,15.52
2023-07-26T05:34:42.491Z,17.38
2023-07-26T05:35:14.270Z,16.85
2023-07-26T05:35:46.642Z,15.48
2023-07-26T05:36:19.416Z,15.88
2023-07-26T05:36:52.427Z,23.42
2023-07-26T05:37:25.665Z,16.88
2023-07-26T05:37:57.457Z,15.52
2023-07-26T05:38:29.406Z,17.98
2023-07-26T05:39:01.446Z,17.70
2023-07-26T05:39:33.296Z,16.90
2023-07-26T05:40:06.683Z,17.05
2023-07-26T05:40:38.810Z,18.73
2023-07-26T05:41:10.611Z,15.65
2023-07-26T05:41:42.573Z,14.50
2023-07-26T05:42:15.501Z,16.23
2023-07-26T05:42:47.282Z,16.05
2023-07-26T05:43:19.492Z,14.50
2023-07-26T05:43:51.198Z,13.43
2023-07-26T05:44:23.071Z,13.85
2023-07-26T05:44:54.852Z,13.45
2023-07-26T05:45:26.688Z,14.30
2023-07-26T05:45:58.562Z,13.68
2023-07-26T05:46:30.448Z,17.00
2023-07-26T05:47:02.184Z,13.15
2023-07-26T05:47:38.986Z,13.80
2023-07-26T05:48:10.800Z,14.30
2023-07-26T05:48:42.556Z,15.68
2023-07-26T05:49:14.451Z,13.07
2023-07-26T05:49:46.200Z,14.30
2023-07-26T05:50:17.982Z,14.15
2023-07-26T05:50:49.773Z,15.13
2023-07-26T05:51:21.567Z,13.57
2023-07-26T05:51:53.731Z,13.68
2023-07-26T05:52:26.121Z,15.00
2023-07-26T05:52:57.930Z,17.77
2023-07-26T05:53:29.863Z,14.90
2023-07-26T05:54:01.652Z,16.52
2023-07-26T05:54:33.487Z,15.50
2023-07-26T05:55:05.896Z,12.30
2023-07-26T05:55:37.995Z,14.30
2023-07-26T05:56:10.182Z,13.43
2023-07-26T05:56:42.252Z,14.38
2023-07-26T05:57:14.100Z,12.95
2023-07-26T05:57:45.985Z,14.00
2023-07-26T05:58:17.810Z,17.25
2023-07-26T05:58:51.388Z,14.35
2023-07-26T05:59:24.172Z,17.73
2023-07-26T05:59:56.238Z,16.92
2023-07-26T06:00:28.111Z,13.13
2023-07-26T06:00:59.930Z,15.98
2023-07-26T06:01:33.232Z,13.70
2023-07-26T06:02:06.122Z,17.08
2023-07-26T06:02:37.984Z,18.42
2023-07-26T06:03:09.913Z,13.48
2023-07-26T06:04:08.143Z,14.98
2023-07-26T06:05:06.689Z,13.98
2023-07-26T06:05:38.585Z,13.45
2023-07-26T06:06:11.297Z,15.73
2023-07-26T06:06:43.109Z,14.75
2023-07-26T06:07:16.976Z,12.88
2023-07-26T06:07:50.731Z,13.05
2023-07-26T06:08:22.809Z,12.77
2023-07-26T06:08:54.631Z,13.60
2023-07-26T06:09:27.049Z,13.02
2023-07-26T06:09:59.333Z,13.00
2023-07-26T06:10:31.133Z,11.15
2023-07-26T06:11:02.873Z,15.63
2023-07-26T06:11:51.204Z,12.50
2023-07-26T06:12:27.985Z,12.13
2023-07-26T06:12:59.772Z,10.85
2023-07-26T06:13:31.834Z,12.27
2023-07-26T06:14:03.671Z,13.32
2023-07-26T06:14:35.569Z,11.48
2023-07-26T06:15:08.050Z,12.70
2023-07-26T06:15:41.978Z,11.70
2023-07-26T06:16:13.841Z,14.95
2023-07-26T06:16:45.752Z,12.13
2023-07-26T06:17:17.704Z,13.13
2023-07-26T06:17:49.513Z,13.20
2023-07-26T06:18:21.564Z,13.55
2023-07-26T06:18:53.398Z,16.42
2023-07-26T06:19:25.441Z,10.98
2023-07-26T06:19:57.164Z,14.45
2023-07-26T06:20:28.894Z,12.10
2023-07-26T06:21:00.649Z,10.35
2023-07-26T06:21:32.850Z,16.08
2023-07-26T06:22:06.159Z,10.43
2023-07-26T06:22:37.972Z,12.48
2023-07-26T06:23:09.871Z,12.93
2023-07-26T06:23:41.833Z,11.02
2023-07-26T06:24:20.186Z,9.75
2023-07-26T06:24:54.968Z,10.77
2023-07-26T06:25:27.253Z,11.63
2023-07-26T06:25:59.115Z,11.55
2023-07-26T06:26:30.932Z,11.05
2023-07-26T06:27:04.246Z,10.90
2023-07-26T06:27:36.044Z,12.05
2023-07-26T06:28:07.790Z,15.25
2023-07-26T06:28:39.825Z,10.70
2023-07-26T06:29:11.740Z,11.32
2023-07-26T06:29:43.496Z,9.52
2023-07-26T06:30:16.654Z,14.20
2023-07-26T06:30:49.397Z,12.48
2023-07-26T06:31:21.383Z,10.45
2023-07-26T06:31:53.216Z,10.45
2023-07-26T06:32:25.189Z,10.27
2023-07-26T06:32:57.046Z,10.30
2023-07-26T06:33:28.849Z,10.95
2023-07-26T06:34:00.687Z,12.10
2023-07-26T06:34:32.707Z,11.77
2023-07-26T06:35:04.850Z,8.25
2023-07-26T06:35:36.879Z,8.57
2023-07-26T06:36:08.947Z,9.07
2023-07-26T06:36:40.754Z,9.20
2023-07-26T06:37:12.576Z,9.15
2023-07-26T06:37:44.426Z,9.05
2023-07-26T06:38:16.187Z,8.48
2023-07-26T06:38:48.071Z,10.93
2023-07-26T06:39:19.821Z,10.55
2023-07-26T06:39:52.183Z,8.52
2023-07-26T06:40:23.883Z,8.43
2023-07-26T06:40:55.727Z,7.80
2023-07-26T06:41:27.457Z,8.57
2023-07-26T06:41:59.281Z,8.75
2023-07-26T06:42:31.056Z,7.38
2023-07-26T06:43:03.455Z,7.90
2023-07-26T06:43:35.906Z,7.63
2023-07-26T06:44:07.709Z,9.43
2023-07-26T06:44:40.842Z,7.20
2023-07-26T06:45:12.631Z,7.82
2023-07-26T06:45:50.341Z,6.95
2023-07-26T06:46:22.203Z,8.70
2023-07-26T06:46:53.986Z,9.52
2023-07-26T06:47:25.743Z,10.13
2023-07-26T06:47:57.661Z,8.20
2023-07-26T06:48:29.536Z,7.75
2023-07-26T06:49:03.218Z,10.68
2023-07-26T06:49:35.757Z,8.75
2023-07-26T06:50:08.129Z,8.35
2023-07-26T06:50:41.249Z,10.57
2023-07-26T06:51:13.514Z,8.48
2023-07-26T06:51:45.260Z,10.23
2023-07-26T06:52:17.531Z,8.75
2023-07-26T06:52:49.774Z,10.30
2023-07-26T06:53:21.598Z,7.82
2023-07-26T06:53:53.343Z,8.02
2023-07-26T06:54:25.177Z,7.38
2023-07-26T06:54:56.979Z,9.70
2023-07-26T06:55:28.730Z,8.80
2023-07-26T06:56:01.613Z,14.27
2023-07-26T06:56:33.439Z,8.55
2023-07-26T06:57:05.628Z,10.77
2023-07-26T06:57:37.457Z,7.60
2023-07-26T06:58:09.359Z,9.13
2023-07-26T06:58:42.369Z,8.43
2023-07-26T06:59:14.258Z,8.15
2023-07-26T06:59:46.504Z,9.65
2023-07-26T07:00:18.521Z,8.05
2023-07-26T07:00:50.574Z,7.65
2023-07-26T07:01:22.621Z,7.32
2023-07-26T07:01:54.691Z,6.95
2023-07-26T07:02:26.784Z,7.22
2023-07-26T07:03:00.087Z,9.52
2023-07-26T07:03:32.513Z,10.15
2023-07-26T07:04:13.240Z,7.68
2023-07-26T07:04:46.811Z,10.13
2023-07-26T07:05:20.071Z,7.78
2023-07-26T07:05:52.015Z,8.52
2023-07-26T07:06:23.797Z,13.65
2023-07-26T07:06:56.512Z,7.00
2023-07-26T07:07:28.378Z,7.32
2023-07-26T07:08:00.184Z,10.23